sensor_id;sensor_type;location;lat;lon;timestamp;temperature;humidity
52107;DHT22;38105;52.968;5.974;2023-06-26T00:00:42;22.00;99.90
52107;DHT22;38105;52.968;5.974;2023-06-26T00:03:07;22.00;99.90
52107;DHT22;38105;52.968;5.974;2023-06-26T00:05:33;22.00;99.90
52107;DHT22;38105;52.968;5.974;2023-06-26T00:08:00;22.00;99.90
52107;DHT22;38105;52.968;5.974;2023-06-26T00:10:28;21.90;99.90
52107;DHT22;38105;52.968;5.974;2023-06-26T00:12:54;22.00;99.90
52107;DHT22;38105;52.968;5.974;2023-06-26T00:15:20;21.90;99.90
52107;DHT22;38105;52.968;5.974;2023-06-26T00:17:46;22.00;99.90
52107;DHT22;38105;52.968;5.974;2023-06-26T00:20:11;22.00;99.90
52107;DHT22;38105;52.968;5.974;2023-06-26T00:22:40;22.00;99.90
52107;DHT22;38105;52.968;5.974;2023-06-26T00:25:08;21.90;99.90
52107;DHT22;38105;52.968;5.974;2023-06-26T00:27:34;22.00;99.90
52107;DHT22;38105;52.968;5.974;2023-06-26T00:30:00;21.90;99.90
52107;DHT22;38105;52.968;5.974;2023-06-26T00:32:26;21.90;99.90
52107;DHT22;38105;52.968;5.974;2023-06-26T00:34:51;21.90;99.90
52107;DHT22;38105;52.968;5.974;2023-06-26T00:37:18;21.90;99.90
52107;DHT22;38105;52.968;5.974;2023-06-26T00:39:44;21.90;99.90
52107;DHT22;38105;52.968;5.974;2023-06-26T00:42:09;21.90;99.90
52107;DHT22;38105;52.968;5.974;2023-06-26T00:44:35;21.90;99.90
52107;DHT22;38105;52.968;5.974;2023-06-26T00:47:01;21.90;99.90
52107;DHT22;38105;52.968;5.974;2023-06-26T00:49:27;21.80;99.90
52107;DHT22;38105;52.968;5.974;2023-06-26T00:51:53;21.80;99.90
52107;DHT22;38105;52.968;5.974;2023-06-26T00:54:20;21.80;99.90
52107;DHT22;38105;52.968;5.974;2023-06-26T00:56:48;21.80;99.90
52107;DHT22;38105;52.968;5.974;2023-06-26T00:59:14;21.70;99.90
52107;DHT22;38105;52.968;5.974;2023-06-26T01:01:40;21.70;99.90
52107;DHT22;38105;52.968;5.974;2023-06-26T01:04:05;21.70;99.90
52107;DHT22;38105;52.968;5.974;2023-06-26T01:06:32;21.70;99.90
52107;DHT22;38105;52.968;5.974;2023-06-26T01:09:02;21.70;99.90
52107;DHT22;38105;52.968;5.974;2023-06-26T01:11:27;21.80;99.90
52107;DHT22;38105;52.968;5.974;2023-06-26T01:13:54;21.90;99.90
52107;DHT22;38105;52.968;5.974;2023-06-26T01:16:22;21.90;99.90
52107;DHT22;38105;52.968;5.974;2023-06-26T01:18:49;21.90;99.90
52107;DHT22;38105;52.968;5.974;2023-06-26T01:21:15;21.90;99.90
52107;DHT22;38105;52.968;5.974;2023-06-26T01:24:01;22.00;99.90
52107;DHT22;38105;52.968;5.974;2023-06-26T01:26:31;22.10;99.90
52107;DHT22;38105;52.968;5.974;2023-06-26T01:29:02;22.10;99.90
52107;DHT22;38105;52.968;5.974;2023-06-26T01:31:29;22.10;99.90
52107;DHT22;38105;52.968;5.974;2023-06-26T01:33:59;22.20;99.90
52107;DHT22;38105;52.968;5.974;2023-06-26T01:36:26;22.10;99.90
52107;DHT22;38105;52.968;5.974;2023-06-26T01:38:52;22.10;99.90
52107;DHT22;38105;52.968;5.974;2023-06-26T01:41:19;22.10;99.90
52107;DHT22;38105;52.968;5.974;2023-06-26T01:44:09;22.10;99.90
52107;DHT22;38105;52.968;5.974;2023-06-26T01:46:49;22.00;99.90
52107;DHT22;38105;52.968;5.974;2023-06-26T01:49:47;22.00;99.90
52107;DHT22;38105;52.968;5.974;2023-06-26T01:57:39;21.90;99.90
52107;DHT22;38105;52.968;5.974;2023-06-26T02:00:06;21.90;99.90
52107;DHT22;38105;52.968;5.974;2023-06-26T02:02:35;21.80;99.90
52107;DHT22;38105;52.968;5.974;2023-06-26T02:05:01;21.80;99.90
52107;DHT22;38105;52.968;5.974;2023-06-26T02:07:27;21.80;99.90
52107;DHT22;38105;52.968;5.974;2023-06-26T02:09:53;21.80;99.90
52107;DHT22;38105;52.968;5.974;2023-06-26T02:12:19;21.70;99.90
52107;DHT22;38105;52.968;5.974;2023-06-26T02:14:44;21.70;99.90
52107;DHT22;38105;52.968;5.974;2023-06-26T02:17:10;21.70;99.90
52107;DHT22;38105;52.968;5.974;2023-06-26T02:19:36;21.60;99.90
52107;DHT22;38105;52.968;5.974;2023-06-26T02:22:01;21.60;99.90
52107;DHT22;38105;52.968;5.974;2023-06-26T02:24:27;21.50;99.90
52107;DHT22;38105;52.968;5.974;2023-06-26T02:26:56;21.50;99.90
52107;DHT22;38105;52.968;5.974;2023-06-26T02:29:23;21.50;99.90
52107;DHT22;38105;52.968;5.974;2023-06-26T02:31:48;21.40;99.90
52107;DHT22;38105;52.968;5.974;2023-06-26T02:34:14;21.40;99.90
52107;DHT22;38105;52.968;5.974;2023-06-26T02:36:40;21.40;99.90
52107;DHT22;38105;52.968;5.974;2023-06-26T02:39:05;21.40;99.90
52107;DHT22;38105;52.968;5.974;2023-06-26T02:41:31;21.40;99.90
52107;DHT22;38105;52.968;5.974;2023-06-26T02:43:57;21.40;99.90
52107;DHT22;38105;52.968;5.974;2023-06-26T02:46:23;21.40;99.90
52107;DHT22;38105;52.968;5.974;2023-06-26T02:48:48;21.40;99.90
52107;DHT22;38105;52.968;5.974;2023-06-26T02:51:14;21.40;99.90
52107;DHT22;38105;52.968;5.974;2023-06-26T02:53:40;21.50;99.90
52107;DHT22;38105;52.968;5.974;2023-06-26T02:56:05;21.50;99.90
52107;DHT22;38105;52.968;5.974;2023-06-26T02:58:32;21.40;99.90
52107;DHT22;38105;52.968;5.974;2023-06-26T03:00:57;21.40;99.90
52107;DHT22;38105;52.968;5.974;2023-06-26T03:03:23;21.40;99.90
52107;DHT22;38105;52.968;5.974;2023-06-26T03:05:49;21.40;99.90
52107;DHT22;38105;52.968;5.974;2023-06-26T03:08:14;21.50;99.90
52107;DHT22;38105;52.968;5.974;2023-06-26T03:10:40;21.40;99.90
52107;DHT22;38105;52.968;5.974;2023-06-26T03:13:06;21.40;99.90
52107;DHT22;38105;52.968;5.974;2023-06-26T03:15:32;21.40;99.90
52107;DHT22;38105;52.968;5.974;2023-06-26T03:17:57;21.50;99.90
52107;DHT22;38105;52.968;5.974;2023-06-26T03:20:23;21.50;99.90
52107;DHT22;38105;52.968;5.974;2023-06-26T03:22:48;21.40;99.90
52107;DHT22;38105;52.968;5.974;2023-06-26T03:25:14;21.50;99.90
52107;DHT22;38105;52.968;5.974;2023-06-26T03:27:40;21.40;99.90
52107;DHT22;38105;52.968;5.974;2023-06-26T03:30:06;21.40;99.90
52107;DHT22;38105;52.968;5.974;2023-06-26T03:32:32;21.50;99.90
52107;DHT22;38105;52.968;5.974;2023-06-26T03:34:57;21.50;99.90
52107;DHT22;38105;52.968;5.974;2023-06-26T03:37:23;21.40;99.90
52107;DHT22;38105;52.968;5.974;2023-06-26T03:39:49;21.40;99.90
52107;DHT22;38105;52.968;5.974;2023-06-26T03:42:14;21.40;99.90
52107;DHT22;38105;52.968;5.974;2023-06-26T03:44:40;21.40;99.90
52107;DHT22;38105;52.968;5.974;2023-06-26T03:47:06;21.30;99.90
52107;DHT22;38105;52.968;5.974;2023-06-26T03:49:31;21.30;99.90
52107;DHT22;38105;52.968;5.974;2023-06-26T03:51:57;21.30;99.90
52107;DHT22;38105;52.968;5.974;2023-06-26T03:54:23;21.30;99.90
52107;DHT22;38105;52.968;5.974;2023-06-26T03:56:48;21.30;99.90
52107;DHT22;38105;52.968;5.974;2023-06-26T03:59:14;21.20;99.90
52107;DHT22;38105;52.968;5.974;2023-06-26T04:01:40;21.20;99.90
52107;DHT22;38105;52.968;5.974;2023-06-26T04:04:06;21.10;99.90
52107;DHT22;38105;52.968;5.974;2023-06-26T04:06:31;21.10;99.90
52107;DHT22;38105;52.968;5.974;2023-06-26T04:08:57;21.10;99.90
52107;DHT22;38105;52.968;5.974;2023-06-26T04:11:23;21.20;99.90
52107;DHT22;38105;52.968;5.974;2023-06-26T04:13:50;21.10;99.90
52107;DHT22;38105;52.968;5.974;2023-06-26T04:16:15;21.10;99.90
52107;DHT22;38105;52.968;5.974;2023-06-26T04:18:41;21.10;99.90
52107;DHT22;38105;52.968;5.974;2023-06-26T04:21:11;21.00;99.90
52107;DHT22;38105;52.968;5.974;2023-06-26T04:23:38;20.90;99.90
52107;DHT22;38105;52.968;5.974;2023-06-26T04:26:05;20.90;99.90
52107;DHT22;38105;52.968;5.974;2023-06-26T04:28:32;21.00;99.90
52107;DHT22;38105;52.968;5.974;2023-06-26T04:30:58;21.00;99.90
52107;DHT22;38105;52.968;5.974;2023-06-26T04:33:25;21.00;99.90
52107;DHT22;38105;52.968;5.974;2023-06-26T04:35:51;20.90;99.90
52107;DHT22;38105;52.968;5.974;2023-06-26T04:38:17;20.90;99.90
52107;DHT22;38105;52.968;5.974;2023-06-26T04:40:43;20.80;99.90
52107;DHT22;38105;52.968;5.974;2023-06-26T04:43:09;20.90;99.90
52107;DHT22;38105;52.968;5.974;2023-06-26T04:45:35;20.90;99.90
52107;DHT22;38105;52.968;5.974;2023-06-26T04:48:02;20.80;99.90
52107;DHT22;38105;52.968;5.974;2023-06-26T04:50:27;20.80;99.90
52107;DHT22;38105;52.968;5.974;2023-06-26T04:52:55;20.70;99.90
52107;DHT22;38105;52.968;5.974;2023-06-26T04:55:21;20.60;99.90
52107;DHT22;38105;52.968;5.974;2023-06-26T04:57:50;20.60;99.90
52107;DHT22;38105;52.968;5.974;2023-06-26T05:00:16;20.70;99.90
52107;DHT22;38105;52.968;5.974;2023-06-26T05:02:42;20.80;99.90
52107;DHT22;38105;52.968;5.974;2023-06-26T05:05:07;21.30;99.90
52107;DHT22;38105;52.968;5.974;2023-06-26T05:07:33;22.00;99.90
52107;DHT22;38105;52.968;5.974;2023-06-26T05:09:59;22.60;99.90
52107;DHT22;38105;52.968;5.974;2023-06-26T05:12:25;23.30;99.90
52107;DHT22;38105;52.968;5.974;2023-06-26T05:14:51;23.40;99.90
52107;DHT22;38105;52.968;5.974;2023-06-26T05:17:16;23.40;99.90
52107;DHT22;38105;52.968;5.974;2023-06-26T05:19:42;23.30;99.90
52107;DHT22;38105;52.968;5.974;2023-06-26T05:22:09;23.20;99.90
52107;DHT22;38105;52.968;5.974;2023-06-26T05:24:40;23.00;99.90
52107;DHT22;38105;52.968;5.974;2023-06-26T05:27:06;22.70;99.90
52107;DHT22;38105;52.968;5.974;2023-06-26T05:29:33;22.50;99.90
52107;DHT22;38105;52.968;5.974;2023-06-26T05:31:59;22.40;99.90
52107;DHT22;38105;52.968;5.974;2023-06-26T05:34:25;22.50;99.90
52107;DHT22;38105;52.968;5.974;2023-06-26T05:36:59;22.60;99.90
52107;DHT22;38105;52.968;5.974;2023-06-26T05:39:26;22.70;99.90
52107;DHT22;38105;52.968;5.974;2023-06-26T05:41:52;23.20;99.90
52107;DHT22;38105;52.968;5.974;2023-06-26T05:44:17;23.80;99.90
52107;DHT22;38105;52.968;5.974;2023-06-26T05:46:45;24.60;99.90
52107;DHT22;38105;52.968;5.974;2023-06-26T05:49:11;25.70;99.90
52107;DHT22;38105;52.968;5.974;2023-06-26T05:51:37;26.40;99.90
52107;DHT22;38105;52.968;5.974;2023-06-26T05:54:03;27.30;99.90
52107;DHT22;38105;52.968;5.974;2023-06-26T05:56:29;27.20;99.90
52107;DHT22;38105;52.968;5.974;2023-06-26T05:58:55;27.00;99.90
52107;DHT22;38105;52.968;5.974;2023-06-26T06:01:21;27.20;99.90
52107;DHT22;38105;52.968;5.974;2023-06-26T06:03:47;28.00;99.90
52107;DHT22;38105;52.968;5.974;2023-06-26T06:06:13;28.30;99.90
52107;DHT22;38105;52.968;5.974;2023-06-26T06:08:38;28.80;99.90
52107;DHT22;38105;52.968;5.974;2023-06-26T06:11:04;28.90;99.90
52107;DHT22;38105;52.968;5.974;2023-06-26T06:13:30;28.90;99.90
52107;DHT22;38105;52.968;5.974;2023-06-26T06:15:56;28.70;99.90
52107;DHT22;38105;52.968;5.974;2023-06-26T06:18:22;29.00;99.90
52107;DHT22;38105;52.968;5.974;2023-06-26T06:20:47;29.40;99.90
52107;DHT22;38105;52.968;5.974;2023-06-26T06:23:13;29.50;99.90
52107;DHT22;38105;52.968;5.974;2023-06-26T06:25:39;29.90;99.90
52107;DHT22;38105;52.968;5.974;2023-06-26T06:28:05;29.90;99.90
52107;DHT22;38105;52.968;5.974;2023-06-26T06:30:31;29.90;99.90
52107;DHT22;38105;52.968;5.974;2023-06-26T06:32:57;30.20;99.90
52107;DHT22;38105;52.968;5.974;2023-06-26T06:35:23;30.70;99.90
52107;DHT22;38105;52.968;5.974;2023-06-26T06:37:49;31.60;99.90
52107;DHT22;38105;52.968;5.974;2023-06-26T06:40:15;31.70;99.90
52107;DHT22;38105;52.968;5.974;2023-06-26T06:42:41;31.60;99.90
52107;DHT22;38105;52.968;5.974;2023-06-26T06:45:07;31.90;99.00
52107;DHT22;38105;52.968;5.974;2023-06-26T06:47:33;31.50;99.30
52107;DHT22;38105;52.968;5.974;2023-06-26T06:50:00;30.80;98.80
52107;DHT22;38105;52.968;5.974;2023-06-26T06:52:35;31.00;98.50
52107;DHT22;38105;52.968;5.974;2023-06-26T06:55:01;30.80;98.40
52107;DHT22;38105;52.968;5.974;2023-06-26T06:57:30;30.70;98.60
52107;DHT22;38105;52.968;5.974;2023-06-26T07:00:11;30.50;98.50
52107;DHT22;38105;52.968;5.974;2023-06-26T07:02:41;31.20;98.00
52107;DHT22;38105;52.968;5.974;2023-06-26T07:05:08;31.30;97.70
52107;DHT22;38105;52.968;5.974;2023-06-26T07:07:36;31.00;97.50
52107;DHT22;38105;52.968;5.974;2023-06-26T07:10:04;31.50;97.20
52107;DHT22;38105;52.968;5.974;2023-06-26T07:12:31;32.00;97.50
52107;DHT22;38105;52.968;5.974;2023-06-26T07:14:57;32.50;97.60
52107;DHT22;38105;52.968;5.974;2023-06-26T07:17:23;32.30;96.50
52107;DHT22;38105;52.968;5.974;2023-06-26T07:19:49;31.80;96.80
52107;DHT22;38105;52.968;5.974;2023-06-26T07:22:15;31.90;97.10
52107;DHT22;38105;52.968;5.974;2023-06-26T07:24:41;32.20;96.80
52107;DHT22;38105;52.968;5.974;2023-06-26T07:27:07;31.60;97.40
52107;DHT22;38105;52.968;5.974;2023-06-26T07:29:33;30.80;97.70
52107;DHT22;38105;52.968;5.974;2023-06-26T07:31:58;30.20;98.10
52107;DHT22;38105;52.968;5.974;2023-06-26T07:34:24;29.30;99.00
52107;DHT22;38105;52.968;5.974;2023-06-26T07:36:50;29.30;99.30
52107;DHT22;38105;52.968;5.974;2023-06-26T07:39:16;28.50;99.40
52107;DHT22;38105;52.968;5.974;2023-06-26T07:41:41;28.20;99.90
52107;DHT22;38105;52.968;5.974;2023-06-26T07:44:07;28.30;99.90
52107;DHT22;38105;52.968;5.974;2023-06-26T07:46:33;28.70;99.70
52107;DHT22;38105;52.968;5.974;2023-06-26T07:48:59;28.20;99.90
52107;DHT22;38105;52.968;5.974;2023-06-26T07:51:24;28.20;99.90
52107;DHT22;38105;52.968;5.974;2023-06-26T07:53:50;28.70;99.90
52107;DHT22;38105;52.968;5.974;2023-06-26T07:56:16;28.80;99.90
52107;DHT22;38105;52.968;5.974;2023-06-26T07:58:42;28.50;99.90
52107;DHT22;38105;52.968;5.974;2023-06-26T08:01:08;28.00;99.90
52107;DHT22;38105;52.968;5.974;2023-06-26T08:03:33;27.90;99.90
52107;DHT22;38105;52.968;5.974;2023-06-26T08:06:02;27.30;99.90
52107;DHT22;38105;52.968;5.974;2023-06-26T08:08:29;26.60;99.90
52107;DHT22;38105;52.968;5.974;2023-06-26T08:10:54;27.40;99.90
52107;DHT22;38105;52.968;5.974;2023-06-26T08:13:20;27.70;99.90
52107;DHT22;38105;52.968;5.974;2023-06-26T08:15:46;27.30;99.90
52107;DHT22;38105;52.968;5.974;2023-06-26T08:18:11;27.80;99.90
52107;DHT22;38105;52.968;5.974;2023-06-26T08:20:37;28.10;99.90
52107;DHT22;38105;52.968;5.974;2023-06-26T08:23:03;28.20;99.90
52107;DHT22;38105;52.968;5.974;2023-06-26T08:25:29;28.30;99.90
52107;DHT22;38105;52.968;5.974;2023-06-26T08:27:55;27.20;99.90
52107;DHT22;38105;52.968;5.974;2023-06-26T08:30:21;26.20;99.90
52107;DHT22;38105;52.968;5.974;2023-06-26T08:32:46;26.90;99.90
52107;DHT22;38105;52.968;5.974;2023-06-26T08:35:12;27.70;99.90
52107;DHT22;38105;52.968;5.974;2023-06-26T08:37:38;27.50;99.90
52107;DHT22;38105;52.968;5.974;2023-06-26T08:40:04;27.20;99.90
52107;DHT22;38105;52.968;5.974;2023-06-26T08:42:30;26.70;99.90
52107;DHT22;38105;52.968;5.974;2023-06-26T08:44:55;26.50;99.90
52107;DHT22;38105;52.968;5.974;2023-06-26T08:47:21;25.80;99.90
52107;DHT22;38105;52.968;5.974;2023-06-26T08:49:49;25.70;99.90
52107;DHT22;38105;52.968;5.974;2023-06-26T08:52:17;26.70;99.90
52107;DHT22;38105;52.968;5.974;2023-06-26T08:54:45;27.30;99.90
52107;DHT22;38105;52.968;5.974;2023-06-26T08:57:14;26.70;99.90
52107;DHT22;38105;52.968;5.974;2023-06-26T08:59:42;26.50;99.90
52107;DHT22;38105;52.968;5.974;2023-06-26T09:02:07;26.30;99.90
52107;DHT22;38105;52.968;5.974;2023-06-26T09:04:33;25.70;99.90
52107;DHT22;38105;52.968;5.974;2023-06-26T09:06:59;25.60;99.90
52107;DHT22;38105;52.968;5.974;2023-06-26T09:09:25;26.70;99.90
52107;DHT22;38105;52.968;5.974;2023-06-26T09:11:53;27.40;99.90
52107;DHT22;38105;52.968;5.974;2023-06-26T09:14:21;28.20;99.90
52107;DHT22;38105;52.968;5.974;2023-06-26T09:16:46;28.60;99.90
52107;DHT22;38105;52.968;5.974;2023-06-26T09:19:12;27.80;99.90
52107;DHT22;38105;52.968;5.974;2023-06-26T09:21:41;26.80;99.90
52107;DHT22;38105;52.968;5.974;2023-06-26T09:24:07;26.20;99.90
52107;DHT22;38105;52.968;5.974;2023-06-26T09:26:35;26.50;99.90
52107;DHT22;38105;52.968;5.974;2023-06-26T09:29:01;26.40;99.90
52107;DHT22;38105;52.968;5.974;2023-06-26T09:31:29;26.60;99.90
52107;DHT22;38105;52.968;5.974;2023-06-26T09:33:58;26.80;99.90
52107;DHT22;38105;52.968;5.974;2023-06-26T09:36:27;26.80;99.90
52107;DHT22;38105;52.968;5.974;2023-06-26T09:38:52;26.90;99.90
52107;DHT22;38105;52.968;5.974;2023-06-26T09:41:49;27.00;99.90
52107;DHT22;38105;52.968;5.974;2023-06-26T09:44:15;27.40;99.90
52107;DHT22;38105;52.968;5.974;2023-06-26T09:46:44;27.60;99.90
52107;DHT22;38105;52.968;5.974;2023-06-26T09:49:10;27.00;99.90
52107;DHT22;38105;52.968;5.974;2023-06-26T09:51:37;26.80;99.90
52107;DHT22;38105;52.968;5.974;2023-06-26T09:54:08;27.20;99.90
52107;DHT22;38105;52.968;5.974;2023-06-26T09:56:35;27.90;99.90
52107;DHT22;38105;52.968;5.974;2023-06-26T09:59:01;27.80;99.90
52107;DHT22;38105;52.968;5.974;2023-06-26T10:01:27;27.20;99.90
52107;DHT22;38105;52.968;5.974;2023-06-26T10:03:55;26.70;99.90
52107;DHT22;38105;52.968;5.974;2023-06-26T10:09:21;26.60;99.90
52107;DHT22;38105;52.968;5.974;2023-06-26T10:11:57;26.90;99.90
52107;DHT22;38105;52.968;5.974;2023-06-26T10:14:26;26.20;99.90
52107;DHT22;38105;52.968;5.974;2023-06-26T10:16:52;25.70;99.90
52107;DHT22;38105;52.968;5.974;2023-06-26T10:19:19;25.50;99.90
52107;DHT22;38105;52.968;5.974;2023-06-26T10:21:53;25.50;99.90
52107;DHT22;38105;52.968;5.974;2023-06-26T10:24:19;25.60;99.90
52107;DHT22;38105;52.968;5.974;2023-06-26T10:26:45;25.40;99.90
52107;DHT22;38105;52.968;5.974;2023-06-26T10:29:14;25.90;99.90
52107;DHT22;38105;52.968;5.974;2023-06-26T10:31:42;26.10;99.90
52107;DHT22;38105;52.968;5.974;2023-06-26T10:34:08;25.90;99.90
52107;DHT22;38105;52.968;5.974;2023-06-26T10:36:34;25.60;99.90
52107;DHT22;38105;52.968;5.974;2023-06-26T10:39:04;25.70;99.90
52107;DHT22;38105;52.968;5.974;2023-06-26T10:41:36;26.00;99.90
52107;DHT22;38105;52.968;5.974;2023-06-26T10:46:27;25.90;99.90
52107;DHT22;38105;52.968;5.974;2023-06-26T10:48:58;25.90;99.90
52107;DHT22;38105;52.968;5.974;2023-06-26T10:51:25;25.60;99.90
52107;DHT22;38105;52.968;5.974;2023-06-26T10:53:54;25.30;99.90
52107;DHT22;38105;52.968;5.974;2023-06-26T10:56:20;25.10;99.90
52107;DHT22;38105;52.968;5.974;2023-06-26T10:58:47;25.40;99.90
52107;DHT22;38105;52.968;5.974;2023-06-26T11:01:19;25.20;99.90
52107;DHT22;38105;52.968;5.974;2023-06-26T11:03:48;25.30;99.90
52107;DHT22;38105;52.968;5.974;2023-06-26T11:06:20;25.10;99.90
52107;DHT22;38105;52.968;5.974;2023-06-26T11:08:53;25.30;99.90
52107;DHT22;38105;52.968;5.974;2023-06-26T11:11:20;25.50;99.90
52107;DHT22;38105;52.968;5.974;2023-06-26T11:13:46;25.90;99.90
52107;DHT22;38105;52.968;5.974;2023-06-26T11:16:15;25.60;99.90
52107;DHT22;38105;52.968;5.974;2023-06-26T11:18:41;25.30;99.90
52107;DHT22;38105;52.968;5.974;2023-06-26T11:21:10;25.40;99.90
52107;DHT22;38105;52.968;5.974;2023-06-26T11:23:38;25.10;99.90
52107;DHT22;38105;52.968;5.974;2023-06-26T11:26:25;25.10;99.90
52107;DHT22;38105;52.968;5.974;2023-06-26T11:28:51;25.40;99.90
52107;DHT22;38105;52.968;5.974;2023-06-26T11:31:32;25.50;99.90
52107;DHT22;38105;52.968;5.974;2023-06-26T11:34:02;25.40;99.90
52107;DHT22;38105;52.968;5.974;2023-06-26T11:36:28;25.40;99.90
52107;DHT22;38105;52.968;5.974;2023-06-26T11:38:58;24.90;99.90
52107;DHT22;38105;52.968;5.974;2023-06-26T11:41:27;24.70;99.90
52107;DHT22;38105;52.968;5.974;2023-06-26T11:43:53;24.70;99.90
52107;DHT22;38105;52.968;5.974;2023-06-26T11:46:19;24.70;99.90
52107;DHT22;38105;52.968;5.974;2023-06-26T11:48:45;24.30;99.90
52107;DHT22;38105;52.968;5.974;2023-06-26T11:51:14;24.60;99.90
52107;DHT22;38105;52.968;5.974;2023-06-26T11:53:40;24.80;99.90
52107;DHT22;38105;52.968;5.974;2023-06-26T11:56:08;24.70;99.90
52107;DHT22;38105;52.968;5.974;2023-06-26T11:58:33;24.80;99.90
52107;DHT22;38105;52.968;5.974;2023-06-26T12:00:59;24.60;99.90
52107;DHT22;38105;52.968;5.974;2023-06-26T12:03:25;24.30;99.90
52107;DHT22;38105;52.968;5.974;2023-06-26T12:05:50;24.40;99.90
52107;DHT22;38105;52.968;5.974;2023-06-26T12:08:17;24.70;99.90
52107;DHT22;38105;52.968;5.974;2023-06-26T12:10:44;25.00;99.90
52107;DHT22;38105;52.968;5.974;2023-06-26T12:13:10;24.60;99.90
52107;DHT22;38105;52.968;5.974;2023-06-26T12:15:36;24.60;99.90
52107;DHT22;38105;52.968;5.974;2023-06-26T12:18:07;24.40;99.90
52107;DHT22;38105;52.968;5.974;2023-06-26T12:20:39;24.70;99.90
52107;DHT22;38105;52.968;5.974;2023-06-26T12:23:04;25.00;99.90
52107;DHT22;38105;52.968;5.974;2023-06-26T12:25:36;25.40;99.90
52107;DHT22;38105;52.968;5.974;2023-06-26T12:28:02;25.30;99.90
52107;DHT22;38105;52.968;5.974;2023-06-26T12:30:27;25.10;99.90
52107;DHT22;38105;52.968;5.974;2023-06-26T12:32:56;25.10;99.90
52107;DHT22;38105;52.968;5.974;2023-06-26T12:35:21;24.80;99.90
52107;DHT22;38105;52.968;5.974;2023-06-26T12:37:47;24.80;99.90
52107;DHT22;38105;52.968;5.974;2023-06-26T12:40:19;24.60;99.90
52107;DHT22;38105;52.968;5.974;2023-06-26T12:42:47;24.20;99.90
52107;DHT22;38105;52.968;5.974;2023-06-26T12:45:13;24.10;99.90
52107;DHT22;38105;52.968;5.974;2023-06-26T12:47:39;24.10;99.90
52107;DHT22;38105;52.968;5.974;2023-06-26T12:50:06;24.10;99.90
52107;DHT22;38105;52.968;5.974;2023-06-26T12:52:32;24.00;99.90
52107;DHT22;38105;52.968;5.974;2023-06-26T12:54:58;24.00;99.90
52107;DHT22;38105;52.968;5.974;2023-06-26T12:57:23;24.00;99.90
52107;DHT22;38105;52.968;5.974;2023-06-26T12:59:49;24.20;99.90
52107;DHT22;38105;52.968;5.974;2023-06-26T13:02:14;24.00;99.90
52107;DHT22;38105;52.968;5.974;2023-06-26T13:04:40;24.10;99.90
52107;DHT22;38105;52.968;5.974;2023-06-26T13:07:09;24.30;99.90
52107;DHT22;38105;52.968;5.974;2023-06-26T13:09:35;24.40;99.90
52107;DHT22;38105;52.968;5.974;2023-06-26T13:12:02;24.30;99.90
52107;DHT22;38105;52.968;5.974;2023-06-26T13:14:32;23.90;99.90
52107;DHT22;38105;52.968;5.974;2023-06-26T13:16:58;24.00;99.90
52107;DHT22;38105;52.968;5.974;2023-06-26T13:19:24;23.80;99.90
52107;DHT22;38105;52.968;5.974;2023-06-26T13:21:49;23.90;99.90
52107;DHT22;38105;52.968;5.974;2023-06-26T13:24:15;24.00;99.90
52107;DHT22;38105;52.968;5.974;2023-06-26T13:26:41;23.80;99.90
52107;DHT22;38105;52.968;5.974;2023-06-26T13:29:06;23.60;99.90
52107;DHT22;38105;52.968;5.974;2023-06-26T13:31:32;23.50;99.90
52107;DHT22;38105;52.968;5.974;2023-06-26T13:33:58;23.50;99.90
52107;DHT22;38105;52.968;5.974;2023-06-26T13:36:24;23.80;99.90
52107;DHT22;38105;52.968;5.974;2023-06-26T13:38:50;23.80;99.90
52107;DHT22;38105;52.968;5.974;2023-06-26T13:41:21;23.70;99.90
52107;DHT22;38105;52.968;5.974;2023-06-26T13:43:47;24.10;99.90
52107;DHT22;38105;52.968;5.974;2023-06-26T13:46:13;23.90;99.90
52107;DHT22;38105;52.968;5.974;2023-06-26T13:48:39;23.70;99.90
52107;DHT22;38105;52.968;5.974;2023-06-26T13:51:04;23.80;99.90
52107;DHT22;38105;52.968;5.974;2023-06-26T13:53:30;23.40;99.90
52107;DHT22;38105;52.968;5.974;2023-06-26T13:55:55;23.60;99.90
52107;DHT22;38105;52.968;5.974;2023-06-26T13:58:21;23.80;99.90
52107;DHT22;38105;52.968;5.974;2023-06-26T14:00:47;23.60;99.90
52107;DHT22;38105;52.968;5.974;2023-06-26T14:03:14;23.60;99.90
52107;DHT22;38105;52.968;5.974;2023-06-26T14:05:39;23.70;99.90
52107;DHT22;38105;52.968;5.974;2023-06-26T14:08:06;23.70;99.90
52107;DHT22;38105;52.968;5.974;2023-06-26T14:10:32;23.90;99.90
52107;DHT22;38105;52.968;5.974;2023-06-26T14:12:58;23.80;99.90
52107;DHT22;38105;52.968;5.974;2023-06-26T14:15:26;23.70;99.90
52107;DHT22;38105;52.968;5.974;2023-06-26T14:17:53;23.90;99.90
52107;DHT22;38105;52.968;5.974;2023-06-26T14:20:21;23.90;99.90
52107;DHT22;38105;52.968;5.974;2023-06-26T14:22:47;24.00;99.90
52107;DHT22;38105;52.968;5.974;2023-06-26T14:25:13;24.00;99.90
52107;DHT22;38105;52.968;5.974;2023-06-26T14:27:39;23.90;99.90
52107;DHT22;38105;52.968;5.974;2023-06-26T14:30:05;23.80;99.90
52107;DHT22;38105;52.968;5.974;2023-06-26T14:32:31;23.60;99.90
52107;DHT22;38105;52.968;5.974;2023-06-26T14:34:57;23.50;99.90
52107;DHT22;38105;52.968;5.974;2023-06-26T14:37:22;23.20;99.90
52107;DHT22;38105;52.968;5.974;2023-06-26T14:39:49;23.40;99.90
52107;DHT22;38105;52.968;5.974;2023-06-26T14:42:15;23.60;99.90
52107;DHT22;38105;52.968;5.974;2023-06-26T14:44:40;23.40;99.90
52107;DHT22;38105;52.968;5.974;2023-06-26T14:47:06;23.30;99.90
52107;DHT22;38105;52.968;5.974;2023-06-26T14:49:31;23.40;99.90
52107;DHT22;38105;52.968;5.974;2023-06-26T14:51:57;23.40;99.90
52107;DHT22;38105;52.968;5.974;2023-06-26T14:54:22;23.20;99.90
52107;DHT22;38105;52.968;5.974;2023-06-26T14:56:48;23.00;99.90
52107;DHT22;38105;52.968;5.974;2023-06-26T14:59:14;22.90;99.90
52107;DHT22;38105;52.968;5.974;2023-06-26T15:01:39;22.50;99.90
52107;DHT22;38105;52.968;5.974;2023-06-26T15:04:05;22.50;99.90
52107;DHT22;38105;52.968;5.974;2023-06-26T15:06:31;22.60;99.90
52107;DHT22;38105;52.968;5.974;2023-06-26T15:08:58;22.80;99.90
52107;DHT22;38105;52.968;5.974;2023-06-26T15:11:23;22.90;99.90
52107;DHT22;38105;52.968;5.974;2023-06-26T15:13:49;22.80;99.90
52107;DHT22;38105;52.968;5.974;2023-06-26T15:16:14;22.50;99.90
52107;DHT22;38105;52.968;5.974;2023-06-26T15:18:40;22.40;99.90
52107;DHT22;38105;52.968;5.974;2023-06-26T15:21:06;22.40;99.90
52107;DHT22;38105;52.968;5.974;2023-06-26T15:23:32;22.20;99.90
52107;DHT22;38105;52.968;5.974;2023-06-26T15:25:58;22.10;99.90
52107;DHT22;38105;52.968;5.974;2023-06-26T15:28:24;22.00;99.90
52107;DHT22;38105;52.968;5.974;2023-06-26T15:30:49;21.90;99.90
52107;DHT22;38105;52.968;5.974;2023-06-26T15:33:15;22.10;99.90
52107;DHT22;38105;52.968;5.974;2023-06-26T15:35:41;22.10;99.90
52107;DHT22;38105;52.968;5.974;2023-06-26T15:38:06;22.10;99.90